sensor_id;sensor_type;location;lat;lon;timestamp;pressure;altitude;pressure_sealevel;temperature;humidity
56689;BME280;42565;53.342;-1.534;2022-12-29T00:00:20;96049.11;;;6.83;84.37
56689;BME280;42565;53.342;-1.534;2022-12-29T00:02:48;96046.57;;;6.76;84.02
56689;BME280;42565;53.342;-1.534;2022-12-29T00:05:15;96047.02;;;7.28;82.09
56689;BME280;42565;53.342;-1.534;2022-12-29T00:07:48;96046.19;;;7.43;82.26
56689;BME280;42565;53.342;-1.534;2022-12-29T00:10:15;96053.02;;;6.55;85.30
56689;BME280;42565;53.342;-1.534;2022-12-29T00:12:43;96049.22;;;6.52;86.18
56689;BME280;42565;53.342;-1.534;2022-12-29T00:15:10;96048.88;;;6.17;88.41
56689;BME280;42565;53.342;-1.534;2022-12-29T00:17:37;96055.84;;;6.01;89.56
56689;BME280;42565;53.342;-1.534;2022-12-29T00:20:04;96050.90;;;5.93;88.40
56689;BME280;42565;53.342;-1.534;2022-12-29T00:22:31;96039.58;;;6.29;88.54
56689;BME280;42565;53.342;-1.534;2022-12-29T00:24:58;96048.87;;;6.76;86.45
56689;BME280;42565;53.342;-1.534;2022-12-29T00:27:26;96035.37;;;6.66;85.38
56689;BME280;42565;53.342;-1.534;2022-12-29T00:29:54;96026.62;;;6.72;84.92
56689;BME280;42565;53.342;-1.534;2022-12-29T00:32:21;96025.10;;;6.47;85.70
56689;BME280;42565;53.342;-1.534;2022-12-29T00:34:48;96021.08;;;6.87;84.31
56689;BME280;42565;53.342;-1.534;2022-12-29T00:37:15;96021.90;;;6.71;84.32
56689;BME280;42565;53.342;-1.534;2022-12-29T00:39:42;96018.17;;;6.67;86.03
56689;BME280;42565;53.342;-1.534;2022-12-29T00:42:09;96018.87;;;6.64;86.04
56689;BME280;42565;53.342;-1.534;2022-12-29T00:44:36;96015.46;;;6.65;84.26
56689;BME280;42565;53.342;-1.534;2022-12-29T00:47:03;96006.57;;;6.19;86.65
56689;BME280;42565;53.342;-1.534;2022-12-29T00:49:31;96009.04;;;6.23;85.93
56689;BME280;42565;53.342;-1.534;2022-12-29T00:52:00;96002.11;;;6.65;83.95
56689;BME280;42565;53.342;-1.534;2022-12-29T00:54:29;96011.73;;;6.22;86.05
56689;BME280;42565;53.342;-1.534;2022-12-29T00:56:56;96003.99;;;6.46;86.76
56689;BME280;42565;53.342;-1.534;2022-12-29T00:59:25;96004.41;;;6.44;85.75
56689;BME280;42565;53.342;-1.534;2022-12-29T01:01:53;96001.65;;;6.72;85.35
56689;BME280;42565;53.342;-1.534;2022-12-29T01:04:23;96001.48;;;7.18;83.40
56689;BME280;42565;53.342;-1.534;2022-12-29T01:06:51;96006.41;;;6.69;84.95
56689;BME280;42565;53.342;-1.534;2022-12-29T01:09:19;96010.81;;;6.35;85.72
56689;BME280;42565;53.342;-1.534;2022-12-29T01:11:46;95998.04;;;5.91;88.50
56689;BME280;42565;53.342;-1.534;2022-12-29T01:14:13;95998.11;;;6.61;87.80
56689;BME280;42565;53.342;-1.534;2022-12-29T01:16:40;96010.87;;;6.47;86.84
56689;BME280;42565;53.342;-1.534;2022-12-29T01:19:07;95994.91;;;6.08;87.05
56689;BME280;42565;53.342;-1.534;2022-12-29T01:21:34;95997.10;;;6.88;84.89
56689;BME280;42565;53.342;-1.534;2022-12-29T01:24:02;95999.96;;;6.53;86.26
56689;BME280;42565;53.342;-1.534;2022-12-29T01:26:29;96009.47;;;6.26;87.65
56689;BME280;42565;53.342;-1.534;2022-12-29T01:28:57;95989.18;;;6.03;87.74
56689;BME280;42565;53.342;-1.534;2022-12-29T01:31:24;96003.60;;;6.18;87.09
56689;BME280;42565;53.342;-1.534;2022-12-29T01:33:51;95995.19;;;5.71;88.53
56689;BME280;42565;53.342;-1.534;2022-12-29T01:36:19;96001.87;;;5.91;88.81
56689;BME280;42565;53.342;-1.534;2022-12-29T01:38:46;96019.15;;;6.26;87.50
56689;BME280;42565;53.342;-1.534;2022-12-29T01:41:14;96006.26;;;5.92;87.51
56689;BME280;42565;53.342;-1.534;2022-12-29T01:43:44;96018.19;;;5.92;88.26
56689;BME280;42565;53.342;-1.534;2022-12-29T01:46:19;96018.85;;;5.86;87.80
56689;BME280;42565;53.342;-1.534;2022-12-29T01:48:49;96026.66;;;6.40;86.12
56689;BME280;42565;53.342;-1.534;2022-12-29T01:51:19;96039.65;;;6.29;85.80
56689;BME280;42565;53.342;-1.534;2022-12-29T01:53:48;96035.02;;;6.76;84.59
56689;BME280;42565;53.342;-1.534;2022-12-29T01:56:17;96046.45;;;6.79;84.59
56689;BME280;42565;53.342;-1.534;2022-12-29T01:58:48;96044.73;;;7.00;85.31
56689;BME280;42565;53.342;-1.534;2022-12-29T02:01:19;96061.87;;;7.21;85.58
56689;BME280;42565;53.342;-1.534;2022-12-29T02:03:47;96061.48;;;7.04;85.00
56689;BME280;42565;53.342;-1.534;2022-12-29T02:06:18;96072.25;;;7.50;84.76
56689;BME280;42565;53.342;-1.534;2022-12-29T02:08:47;96075.27;;;6.83;87.76
56689;BME280;42565;53.342;-1.534;2022-12-29T02:11:16;96091.36;;;7.56;86.83
56689;BME280;42565;53.342;-1.534;2022-12-29T02:13:44;96107.07;;;7.04;90.70
56689;BME280;42565;53.342;-1.534;2022-12-29T02:16:22;96109.81;;;6.55;92.80
56689;BME280;42565;53.342;-1.534;2022-12-29T02:19:08;96125.36;;;6.94;92.11
56689;BME280;42565;53.342;-1.534;2022-12-29T02:21:50;96165.39;;;6.70;92.51
56689;BME280;42565;53.342;-1.534;2022-12-29T02:26:46;96167.37;;;6.97;84.77
56689;BME280;42565;53.342;-1.534;2022-12-29T02:30:15;96160.10;;;6.08;85.65
56689;BME280;42565;53.342;-1.534;2022-12-29T02:32:51;96157.04;;;5.25;88.33
56689;BME280;42565;53.342;-1.534;2022-12-29T02:35:29;96173.75;;;5.18;89.03
56689;BME280;42565;53.342;-1.534;2022-12-29T02:38:10;96171.10;;;5.83;86.47
56689;BME280;42565;53.342;-1.534;2022-12-29T02:40:41;96172.59;;;5.68;85.87
56689;BME280;42565;53.342;-1.534;2022-12-29T02:43:17;96171.90;;;5.57;86.08
56689;BME280;42565;53.342;-1.534;2022-12-29T02:45:53;96178.22;;;5.53;87.33
56689;BME280;42565;53.342;-1.534;2022-12-29T02:48:25;96169.25;;;5.70;86.67
56689;BME280;42565;53.342;-1.534;2022-12-29T02:51:00;96162.52;;;6.01;85.28
56689;BME280;42565;53.342;-1.534;2022-12-29T02:53:29;96166.13;;;5.72;85.77
56689;BME280;42565;53.342;-1.534;2022-12-29T02:55:57;96166.16;;;5.57;86.34
56689;BME280;42565;53.342;-1.534;2022-12-29T02:58:24;96169.51;;;5.87;85.10
56689;BME280;42565;53.342;-1.534;2022-12-29T03:01:03;96173.33;;;5.46;85.40
56689;BME280;42565;53.342;-1.534;2022-12-29T03:03:44;96174.75;;;5.39;86.46
56689;BME280;42565;53.342;-1.534;2022-12-29T03:06:27;96174.14;;;6.12;85.19
56689;BME280;42565;53.342;-1.534;2022-12-29T03:09:02;96175.30;;;5.55;87.00
56689;BME280;42565;53.342;-1.534;2022-12-29T03:11:38;96173.45;;;5.41;88.75
56689;BME280;42565;53.342;-1.534;2022-12-29T03:14:16;96165.84;;;5.26;89.12
56689;BME280;42565;53.342;-1.534;2022-12-29T03:16:48;96152.37;;;6.21;87.93
56689;BME280;42565;53.342;-1.534;2022-12-29T03:19:19;96161.80;;;6.27;86.60
56689;BME280;42565;53.342;-1.534;2022-12-29T03:21:50;96153.27;;;5.72;88.41
56689;BME280;42565;53.342;-1.534;2022-12-29T03:24:25;96168.67;;;6.05;88.82
56689;BME280;42565;53.342;-1.534;2022-12-29T03:26:56;96183.40;;;5.75;88.60
56689;BME280;42565;53.342;-1.534;2022-12-29T03:29:25;96173.15;;;6.14;87.52
56689;BME280;42565;53.342;-1.534;2022-12-29T03:31:55;96178.58;;;5.64;88.91
56689;BME280;42565;53.342;-1.534;2022-12-29T03:34:24;96184.43;;;6.42;87.03
56689;BME280;42565;53.342;-1.534;2022-12-29T03:36:59;96194.65;;;6.53;86.03
56689;BME280;42565;53.342;-1.534;2022-12-29T03:39:27;96200.87;;;6.36;88.45
56689;BME280;42565;53.342;-1.534;2022-12-29T03:41:57;96205.40;;;6.35;88.66
56689;BME280;42565;53.342;-1.534;2022-12-29T03:44:32;96213.09;;;6.16;88.49
56689;BME280;42565;53.342;-1.534;2022-12-29T03:46:59;96201.58;;;6.37;87.91
56689;BME280;42565;53.342;-1.534;2022-12-29T03:49:26;96205.57;;;6.51;87.76
56689;BME280;42565;53.342;-1.534;2022-12-29T03:51:53;96214.74;;;6.62;86.41
56689;BME280;42565;53.342;-1.534;2022-12-29T03:54:21;96215.07;;;6.12;88.01
56689;BME280;42565;53.342;-1.534;2022-12-29T03:56:48;96216.71;;;5.70;89.01
56689;BME280;42565;53.342;-1.534;2022-12-29T03:59:16;96220.89;;;6.01;88.74
56689;BME280;42565;53.342;-1.534;2022-12-29T04:01:44;96232.46;;;5.73;89.44
56689;BME280;42565;53.342;-1.534;2022-12-29T04:04:11;96236.06;;;5.67;87.94
56689;BME280;42565;53.342;-1.534;2022-12-29T04:06:38;96236.89;;;6.17;87.65
56689;BME280;42565;53.342;-1.534;2022-12-29T04:09:06;96245.67;;;6.32;87.57
56689;BME280;42565;53.342;-1.534;2022-12-29T04:11:33;96245.25;;;6.44;85.89
56689;BME280;42565;53.342;-1.534;2022-12-29T04:14:00;96251.46;;;6.26;86.20
56689;BME280;42565;53.342;-1.534;2022-12-29T04:16:26;96259.39;;;6.12;85.91
56689;BME280;42565;53.342;-1.534;2022-12-29T04:18:53;96264.06;;;6.07;87.20
56689;BME280;42565;53.342;-1.534;2022-12-29T04:21:20;96265.82;;;6.67;85.99
56689;BME280;42565;53.342;-1.534;2022-12-29T04:23:48;96274.42;;;6.54;85.30
56689;BME280;42565;53.342;-1.534;2022-12-29T04:26:15;96285.22;;;6.99;84.32
56689;BME280;42565;53.342;-1.534;2022-12-29T04:28:43;96292.82;;;6.93;84.95
56689;BME280;42565;53.342;-1.534;2022-12-29T04:31:09;96305.11;;;6.50;86.64
56689;BME280;42565;53.342;-1.534;2022-12-29T04:33:37;96314.64;;;6.69;86.27
56689;BME280;42565;53.342;-1.534;2022-12-29T04:36:04;96321.31;;;6.82;85.13
56689;BME280;42565;53.342;-1.534;2022-12-29T04:38:31;96323.39;;;6.76;86.77
56689;BME280;42565;53.342;-1.534;2022-12-29T04:40:59;96335.73;;;6.83;85.07
56689;BME280;42565;53.342;-1.534;2022-12-29T04:43:27;96354.02;;;6.76;85.49
56689;BME280;42565;53.342;-1.534;2022-12-29T04:45:54;96335.67;;;6.15;87.01
56689;BME280;42565;53.342;-1.534;2022-12-29T04:48:21;96354.46;;;6.28;86.63
56689;BME280;42565;53.342;-1.534;2022-12-29T04:50:49;96354.35;;;5.93;87.69
56689;BME280;42565;53.342;-1.534;2022-12-29T04:53:17;96360.80;;;5.86;89.59
56689;BME280;42565;53.342;-1.534;2022-12-29T04:55:48;96356.34;;;6.32;88.70
56689;BME280;42565;53.342;-1.534;2022-12-29T04:58:16;96365.76;;;6.62;85.50
56689;BME280;42565;53.342;-1.534;2022-12-29T05:00:42;96376.41;;;6.48;84.98
56689;BME280;42565;53.342;-1.534;2022-12-29T05:03:09;96379.07;;;6.36;85.51
56689;BME280;42565;53.342;-1.534;2022-12-29T05:05:36;96386.43;;;6.58;84.83
56689;BME280;42565;53.342;-1.534;2022-12-29T05:08:04;96389.91;;;6.04;85.17
56689;BME280;42565;53.342;-1.534;2022-12-29T05:10:31;96393.84;;;6.40;85.14
56689;BME280;42565;53.342;-1.534;2022-12-29T05:12:59;96407.66;;;6.91;83.04
56689;BME280;42565;53.342;-1.534;2022-12-29T05:15:26;96412.97;;;6.68;82.35
56689;BME280;42565;53.342;-1.534;2022-12-29T05:17:53;96410.45;;;6.50;82.56
56689;BME280;42565;53.342;-1.534;2022-12-29T05:20:20;96415.68;;;6.83;82.69
56689;BME280;42565;53.342;-1.534;2022-12-29T05:22:47;96412.48;;;6.65;82.54
56689;BME280;42565;53.342;-1.534;2022-12-29T05:25:14;96423.48;;;6.76;81.16
56689;BME280;42565;53.342;-1.534;2022-12-29T05:27:41;96432.86;;;5.91;84.89
56689;BME280;42565;53.342;-1.534;2022-12-29T05:30:09;96436.38;;;5.69;85.88
56689;BME280;42565;53.342;-1.534;2022-12-29T05:32:36;96445.81;;;6.59;83.75
56689;BME280;42565;53.342;-1.534;2022-12-29T05:35:04;96456.22;;;6.22;84.01
56689;BME280;42565;53.342;-1.534;2022-12-29T05:37:31;96463.83;;;6.54;83.10
56689;BME280;42565;53.342;-1.534;2022-12-29T05:39:58;96462.73;;;6.38;83.09
56689;BME280;42565;53.342;-1.534;2022-12-29T05:42:24;96461.26;;;5.94;84.16
56689;BME280;42565;53.342;-1.534;2022-12-29T05:44:51;96476.43;;;6.03;85.10
56689;BME280;42565;53.342;-1.534;2022-12-29T05:47:18;96483.35;;;6.23;84.15
56689;BME280;42565;53.342;-1.534;2022-12-29T05:49:44;96496.69;;;5.99;83.86
56689;BME280;42565;53.342;-1.534;2022-12-29T05:52:11;96494.47;;;6.40;84.71
56689;BME280;42565;53.342;-1.534;2022-12-29T05:54:38;96492.77;;;6.57;84.48
56689;BME280;42565;53.342;-1.534;2022-12-29T05:57:06;96503.07;;;6.35;82.98
56689;BME280;42565;53.342;-1.534;2022-12-29T05:59:33;96504.34;;;5.96;84.24
56689;BME280;42565;53.342;-1.534;2022-12-29T06:02:00;96507.01;;;6.68;82.19
56689;BME280;42565;53.342;-1.534;2022-12-29T06:04:26;96507.26;;;6.88;80.71
56689;BME280;42565;53.342;-1.534;2022-12-29T06:06:53;96518.08;;;6.77;80.66
56689;BME280;42565;53.342;-1.534;2022-12-29T06:09:20;96524.53;;;6.98;80.72
56689;BME280;42565;53.342;-1.534;2022-12-29T06:11:47;96524.58;;;7.07;79.77
56689;BME280;42565;53.342;-1.534;2022-12-29T06:14:14;96523.02;;;7.22;78.60
56689;BME280;42565;53.342;-1.534;2022-12-29T06:16:42;96522.83;;;7.31;79.08
56689;BME280;42565;53.342;-1.534;2022-12-29T06:19:09;96527.10;;;6.47;81.23
56689;BME280;42565;53.342;-1.534;2022-12-29T06:21:36;96528.93;;;6.61;80.93
56689;BME280;42565;53.342;-1.534;2022-12-29T06:24:04;96525.53;;;6.94;80.43
56689;BME280;42565;53.342;-1.534;2022-12-29T06:26:30;96534.03;;;6.69;79.60
56689;BME280;42565;53.342;-1.534;2022-12-29T06:28:57;96535.64;;;6.34;80.17
56689;BME280;42565;53.342;-1.534;2022-12-29T06:31:24;96536.86;;;6.85;82.20
56689;BME280;42565;53.342;-1.534;2022-12-29T06:33:51;96543.41;;;5.91;85.38
56689;BME280;42565;53.342;-1.534;2022-12-29T06:36:18;96537.76;;;6.11;85.27
56689;BME280;42565;53.342;-1.534;2022-12-29T06:38:45;96538.11;;;6.18;83.54
56689;BME280;42565;53.342;-1.534;2022-12-29T06:41:12;96547.10;;;5.76;85.72
56689;BME280;42565;53.342;-1.534;2022-12-29T06:43:38;96544.91;;;5.48;86.12
56689;BME280;42565;53.342;-1.534;2022-12-29T06:46:05;96550.73;;;5.86;84.68
56689;BME280;42565;53.342;-1.534;2022-12-29T06:48:33;96537.42;;;6.06;84.34
56689;BME280;42565;53.342;-1.534;2022-12-29T06:50:59;96547.83;;;6.00;83.16
56689;BME280;42565;53.342;-1.534;2022-12-29T06:53:27;96549.34;;;6.20;82.95
56689;BME280;42565;53.342;-1.534;2022-12-29T06:55:55;96547.56;;;5.68;84.20
56689;BME280;42565;53.342;-1.534;2022-12-29T06:58:21;96553.55;;;5.55;86.22
56689;BME280;42565;53.342;-1.534;2022-12-29T07:00:48;96561.39;;;6.14;84.52
56689;BME280;42565;53.342;-1.534;2022-12-29T07:03:16;96556.09;;;6.31;83.09
56689;BME280;42565;53.342;-1.534;2022-12-29T07:05:43;96564.90;;;6.06;82.49
56689;BME280;42565;53.342;-1.534;2022-12-29T07:08:10;96566.90;;;6.01;85.20
56689;BME280;42565;53.342;-1.534;2022-12-29T07:10:37;96570.59;;;6.59;82.06
56689;BME280;42565;53.342;-1.534;2022-12-29T07:13:04;96571.09;;;5.88;82.81
56689;BME280;42565;53.342;-1.534;2022-12-29T07:15:31;96573.03;;;6.37;82.31
56689;BME280;42565;53.342;-1.534;2022-12-29T07:17:58;96578.08;;;5.77;84.79
56689;BME280;42565;53.342;-1.534;2022-12-29T07:20:24;96579.83;;;6.24;83.54
56689;BME280;42565;53.342;-1.534;2022-12-29T07:22:51;96588.76;;;6.61;82.73
56689;BME280;42565;53.342;-1.534;2022-12-29T07:25:19;96591.84;;;6.62;81.10
56689;BME280;42565;53.342;-1.534;2022-12-29T07:27:45;96596.92;;;6.82;81.49
56689;BME280;42565;53.342;-1.534;2022-12-29T07:30:13;96600.40;;;6.01;83.30
56689;BME280;42565;53.342;-1.534;2022-12-29T07:32:41;96602.22;;;5.69;85.11
56689;BME280;42565;53.342;-1.534;2022-12-29T07:35:08;96606.36;;;5.47;86.06
56689;BME280;42565;53.342;-1.534;2022-12-29T07:37:35;96608.95;;;6.20;84.56
56689;BME280;42565;53.342;-1.534;2022-12-29T07:40:03;96613.68;;;6.14;84.10
56689;BME280;42565;53.342;-1.534;2022-12-29T07:42:30;96620.07;;;5.47;85.21
56689;BME280;42565;53.342;-1.534;2022-12-29T07:44:58;96627.21;;;5.63;85.41
56689;BME280;42565;53.342;-1.534;2022-12-29T07:47:25;96614.57;;;5.43;86.63
56689;BME280;42565;53.342;-1.534;2022-12-29T07:49:52;96627.25;;;5.44;88.26
56689;BME280;42565;53.342;-1.534;2022-12-29T07:52:19;96630.67;;;5.09;88.50
56689;BME280;42565;53.342;-1.534;2022-12-29T07:54:45;96631.37;;;5.29;87.56
56689;BME280;42565;53.342;-1.534;2022-12-29T07:57:12;96641.29;;;5.99;85.83
56689;BME280;42565;53.342;-1.534;2022-12-29T07:59:39;96642.85;;;5.93;84.81
56689;BME280;42565;53.342;-1.534;2022-12-29T08:02:08;96649.39;;;5.66;85.18
56689;BME280;42565;53.342;-1.534;2022-12-29T08:04:36;96656.76;;;5.74;88.11
56689;BME280;42565;53.342;-1.534;2022-12-29T08:07:03;96651.54;;;5.90;86.96
56689;BME280;42565;53.342;-1.534;2022-12-29T08:09:30;96657.54;;;5.66;88.26
56689;BME280;42565;53.342;-1.534;2022-12-29T08:11:57;96657.05;;;5.40;87.21
56689;BME280;42565;53.342;-1.534;2022-12-29T08:14:24;96657.44;;;5.72;86.23
56689;BME280;42565;53.342;-1.534;2022-12-29T08:16:51;96664.44;;;5.28;85.61
56689;BME280;42565;53.342;-1.534;2022-12-29T08:19:19;96666.15;;;5.00;86.07
56689;BME280;42565;53.342;-1.534;2022-12-29T08:21:46;96668.03;;;5.86;84.16
56689;BME280;42565;53.342;-1.534;2022-12-29T08:24:12;96673.69;;;5.80;81.96
56689;BME280;42565;53.342;-1.534;2022-12-29T08:26:39;96675.54;;;6.16;82.64
56689;BME280;42565;53.342;-1.534;2022-12-29T08:29:06;96684.43;;;6.30;81.28
56689;BME280;42565;53.342;-1.534;2022-12-29T08:31:33;96693.30;;;6.00;80.78
56689;BME280;42565;53.342;-1.534;2022-12-29T08:34:00;96687.98;;;6.28;79.82
56689;BME280;42565;53.342;-1.534;2022-12-29T08:36:28;96704.08;;;5.93;80.97
56689;BME280;42565;53.342;-1.534;2022-12-29T08:38:54;96711.68;;;5.67;83.34
56689;BME280;42565;53.342;-1.534;2022-12-29T08:41:21;96702.99;;;4.86;86.11
56689;BME280;42565;53.342;-1.534;2022-12-29T08:43:48;96710.47;;;6.12;83.39
56689;BME280;42565;53.342;-1.534;2022-12-29T08:46:16;96716.77;;;5.64;82.22
56689;BME280;42565;53.342;-1.534;2022-12-29T08:48:43;96734.47;;;6.32;81.98
56689;BME280;42565;53.342;-1.534;2022-12-29T08:51:12;96727.25;;;5.96;82.50
56689;BME280;42565;53.342;-1.534;2022-12-29T08:53:39;96747.41;;;6.22;80.27
56689;BME280;42565;53.342;-1.534;2022-12-29T08:56:08;96753.12;;;5.83;81.97
56689;BME280;42565;53.342;-1.534;2022-12-29T08:58:35;96756.77;;;6.22;81.28
56689;BME280;42565;53.342;-1.534;2022-12-29T09:01:03;96762.79;;;6.59;79.29
56689;BME280;42565;53.342;-1.534;2022-12-29T09:03:30;96761.66;;;7.42;76.00
56689;BME280;42565;53.342;-1.534;2022-12-29T09:05:58;96760.96;;;7.79;73.25
56689;BME280;42565;53.342;-1.534;2022-12-29T09:08:25;96767.07;;;8.63;70.81
56689;BME280;42565;53.342;-1.534;2022-12-29T09:10:52;96770.50;;;8.14;69.81
56689;BME280;42565;53.342;-1.534;2022-12-29T09:13:20;96770.55;;;8.52;70.57
56689;BME280;42565;53.342;-1.534;2022-12-29T09:15:47;96771.83;;;8.98;68.01
56689;BME280;42565;53.342;-1.534;2022-12-29T09:18:14;96765.40;;;9.96;63.98
56689;BME280;42565;53.342;-1.534;2022-12-29T09:20:42;96780.81;;;11.06;60.26
56689;BME280;42565;53.342;-1.534;2022-12-29T09:23:09;96777.11;;;9.22;62.63
56689;BME280;42565;53.342;-1.534;2022-12-29T09:25:37;96766.46;;;9.06;64.15
56689;BME280;42565;53.342;-1.534;2022-12-29T09:28:05;96774.35;;;9.63;60.03
56689;BME280;42565;53.342;-1.534;2022-12-29T09:30:32;96770.33;;;9.12;61.79
56689;BME280;42565;53.342;-1.534;2022-12-29T09:33:00;96770.93;;;10.31;59.74
56689;BME280;42565;53.342;-1.534;2022-12-29T09:35:27;96775.21;;;10.12;57.72
56689;BME280;42565;53.342;-1.534;2022-12-29T09:37:54;96788.17;;;11.04;55.08
56689;BME280;42565;53.342;-1.534;2022-12-29T09:40:26;96778.29;;;10.20;55.43
56689;BME280;42565;53.342;-1.534;2022-12-29T09:43:14;96786.05;;;10.63;55.06
56689;BME280;42565;53.342;-1.534;2022-12-29T09:45:46;96781.85;;;11.32;52.42
56689;BME280;42565;53.342;-1.534;2022-12-29T09:48:16;96799.23;;;11.11;51.98
56689;BME280;42565;53.342;-1.534;2022-12-29T09:50:48;96803.26;;;11.27;52.24
56689;BME280;42565;53.342;-1.534;2022-12-29T09:53:23;96829.66;;;10.84;52.92
56689;BME280;42565;53.342;-1.534;2022-12-29T09:55:53;96827.09;;;10.06;53.31
56689;BME280;42565;53.342;-1.534;2022-12-29T09:58:26;96819.46;;;10.69;53.01
56689;BME280;42565;53.342;-1.534;2022-12-29T10:01:00;96823.68;;;10.65;52.67
56689;BME280;42565;53.342;-1.534;2022-12-29T10:03:36;96824.61;;;10.61;52.76
56689;BME280;42565;53.342;-1.534;2022-12-29T10:06:12;96833.75;;;11.49;51.83
56689;BME280;42565;53.342;-1.534;2022-12-29T10:08:47;96839.59;;;10.73;51.71
56689;BME280;42565;53.342;-1.534;2022-12-29T10:11:27;96835.38;;;10.77;51.81
56689;BME280;42565;53.342;-1.534;2022-12-29T10:14:07;96854.51;;;10.39;53.57
56689;BME280;42565;53.342;-1.534;2022-12-29T10:16:43;96851.04;;;10.99;52.69
56689;BME280;42565;53.342;-1.534;2022-12-29T10:19:27;96851.91;;;10.79;51.81
56689;BME280;42565;53.342;-1.534;2022-12-29T10:22:06;96873.63;;;10.37;51.95
56689;BME280;42565;53.342;-1.534;2022-12-29T10:24:39;96872.51;;;10.81;52.80
56689;BME280;42565;53.342;-1.534;2022-12-29T10:27:11;96869.69;;;10.45;52.39
56689;BME280;42565;53.342;-1.534;2022-12-29T10:29:42;96876.12;;;10.30;52.72
56689;BME280;42565;53.342;-1.534;2022-12-29T10:32:21;96865.72;;;10.13;54.30
56689;BME280;42565;53.342;-1.534;2022-12-29T10:34:53;96870.46;;;9.91;54.52
56689;BME280;42565;53.342;-1.534;2022-12-29T10:37:30;96870.82;;;10.48;54.81
56689;BME280;42565;53.342;-1.534;2022-12-29T10:40:01;96866.21;;;10.17;54.48
56689;BME280;42565;53.342;-1.534;2022-12-29T10:42:36;96874.60;;;9.26;55.65
56689;BME280;42565;53.342;-1.534;2022-12-29T10:45:13;96891.14;;;8.83;56.44
56689;BME280;42565;53.342;-1.534;2022-12-29T10:47:51;96885.92;;;9.42;57.73
56689;BME280;42565;53.342;-1.534;2022-12-29T10:50:20;96884.88;;;8.47;59.99
56689;BME280;42565;53.342;-1.534;2022-12-29T10:52:48;96888.46;;;8.93;58.33
56689;BME280;42565;53.342;-1.534;2022-12-29T10:55:19;96890.18;;;8.88;59.48
56689;BME280;42565;53.342;-1.534;2022-12-29T10:57:48;96891.26;;;8.46;59.53
56689;BME280;42565;53.342;-1.534;2022-12-29T11:00:18;96900.82;;;8.27;61.05
56689;BME280;42565;53.342;-1.534;2022-12-29T11:03:40;96912.28;;;8.31;59.81
56689;BME280;42565;53.342;-1.534;2022-12-29T11:06:31;96911.22;;;9.07;60.46
56689;BME280;42565;53.342;-1.534;2022-12-29T11:09:02;96918.91;;;9.15;58.30
56689;BME280;42565;53.342;-1.534;2022-12-29T11:11:36;96915.51;;;9.46;57.35
56689;BME280;42565;53.342;-1.534;2022-12-29T11:14:12;96917.55;;;8.82;57.55
56689;BME280;42565;53.342;-1.534;2022-12-29T11:16:40;96925.54;;;8.64;58.58
56689;BME280;42565;53.342;-1.534;2022-12-29T11:19:20;96943.82;;;8.63;58.52
56689;BME280;42565;53.342;-1.534;2022-12-29T11:21:47;96942.43;;;8.36;58.79
56689;BME280;42565;53.342;-1.534;2022-12-29T11:24:21;96933.11;;;8.12;60.06
56689;BME280;42565;53.342;-1.534;2022-12-29T11:26:50;96927.61;;;7.90;60.46
56689;BME280;42565;53.342;-1.534;2022-12-29T11:29:23;96933.47;;;7.98;60.73
56689;BME280;42565;53.342;-1.534;2022-12-29T11:31:52;96932.74;;;7.74;59.90
56689;BME280;42565;53.342;-1.534;2022-12-29T11:34:21;96932.81;;;7.69;60.89
56689;BME280;42565;53.342;-1.534;2022-12-29T11:36:49;96932.31;;;7.66;59.90
56689;BME280;42565;53.342;-1.534;2022-12-29T11:39:38;96930.14;;;7.43;61.33
56689;BME280;42565;53.342;-1.534;2022-12-29T11:42:11;96946.70;;;7.08;63.78
56689;BME280;42565;53.342;-1.534;2022-12-29T11:44:44;96937.80;;;7.17;63.98
56689;BME280;42565;53.342;-1.534;2022-12-29T11:47:21;96942.75;;;7.60;61.62
56689;BME280;42565;53.342;-1.534;2022-12-29T11:49:52;96935.88;;;8.67;59.58
56689;BME280;42565;53.342;-1.534;2022-12-29T11:52:22;96931.46;;;8.83;58.67
56689;BME280;42565;53.342;-1.534;2022-12-29T11:54:51;96930.64;;;8.90;58.29
56689;BME280;42565;53.342;-1.534;2022-12-29T11:57:19;96948.91;;;9.60;55.99
56689;BME280;42565;53.342;-1.534;2022-12-29T11:59:51;96947.45;;;9.90;54.30
56689;BME280;42565;53.342;-1.534;2022-12-29T12:02:30;96947.66;;;9.53;54.86
56689;BME280;42565;53.342;-1.534;2022-12-29T12:05:15;96940.69;;;8.46;57.77
56689;BME280;42565;53.342;-1.534;2022-12-29T12:07:47;96946.12;;;8.78;57.25
56689;BME280;42565;53.342;-1.534;2022-12-29T12:10:21;96945.87;;;8.64;57.54
56689;BME280;42565;53.342;-1.534;2022-12-29T12:12:56;96953.62;;;8.21;59.24
56689;BME280;42565;53.342;-1.534;2022-12-29T12:15:28;96941.69;;;8.19;60.39
56689;BME280;42565;53.342;-1.534;2022-12-29T12:18:01;96954.54;;;8.61;59.11
56689;BME280;42565;53.342;-1.534;2022-12-29T12:20:38;96959.67;;;8.95;58.37
56689;BME280;42565;53.342;-1.534;2022-12-29T12:23:16;96957.70;;;7.90;60.24
56689;BME280;42565;53.342;-1.534;2022-12-29T12:25:53;96959.21;;;8.67;60.42
56689;BME280;42565;53.342;-1.534;2022-12-29T12:28:28;96964.58;;;8.35;59.14
56689;BME280;42565;53.342;-1.534;2022-12-29T12:31:02;96955.94;;;8.28;58.96
56689;BME280;42565;53.342;-1.534;2022-12-29T12:33:37;96967.71;;;7.98;59.47
56689;BME280;42565;53.342;-1.534;2022-12-29T12:36:20;96962.52;;;7.20;61.65
56689;BME280;42565;53.342;-1.534;2022-12-29T12:38:54;96981.27;;;7.34;60.89
56689;BME280;42565;53.342;-1.534;2022-12-29T12:41:32;96973.68;;;7.60;61.89
56689;BME280;42565;53.342;-1.534;2022-12-29T12:44:10;96971.22;;;7.02;62.27
56689;BME280;42565;53.342;-1.534;2022-12-29T12:46:54;96970.30;;;7.65;60.21
56689;BME280;42565;53.342;-1.534;2022-12-29T12:50:10;96972.82;;;7.54;60.97
56689;BME280;42565;53.342;-1.534;2022-12-29T12:52:51;96977.69;;;7.24;62.23
56689;BME280;42565;53.342;-1.534;2022-12-29T12:55:34;96976.16;;;7.08;62.74
56689;BME280;42565;53.342;-1.534;2022-12-29T12:58:11;96979.34;;;7.08;61.93
56689;BME280;42565;53.342;-1.534;2022-12-29T13:00:54;96972.15;;;7.60;61.30
56689;BME280;42565;53.342;-1.534;2022-12-29T13:03:36;96971.65;;;7.23;62.90
56689;BME280;42565;53.342;-1.534;2022-12-29T13:06:17;96985.66;;;7.27;62.22
56689;BME280;42565;53.342;-1.534;2022-12-29T13:09:08;96979.57;;;7.39;62.81
56689;BME280;42565;53.342;-1.534;2022-12-29T13:11:47;96976.94;;;7.32;61.65
56689;BME280;42565;53.342;-1.534;2022-12-29T13:14:27;96992.91;;;7.24;62.87
56689;BME280;42565;53.342;-1.534;2022-12-29T13:17:05;96994.93;;;6.99;62.94
56689;BME280;42565;53.342;-1.534;2022-12-29T13:19:40;96993.99;;;6.86;63.26